sensor_id;sensor_type;location;lat;lon;timestamp;pressure;altitude;pressure_sealevel;temperature;humidity
24031;BME280;12240;51.142;22.486;2023-02-02T00:01:54;98205.97;;;0.97;100.00
24031;BME280;12240;51.142;22.486;2023-02-02T00:04:30;98252.16;;;1.32;100.00
24031;BME280;12240;51.142;22.486;2023-02-02T00:07:00;98254.53;;;1.35;100.00
24031;BME280;12240;51.142;22.486;2023-02-02T00:09:31;98226.66;;;1.23;100.00
24031;BME280;12240;51.142;22.486;2023-02-02T00:12:00;98250.47;;;1.42;100.00
24031;BME280;12240;51.142;22.486;2023-02-02T00:14:32;98251.91;;;1.46;100.00
24031;BME280;12240;51.142;22.486;2023-02-02T00:17:00;98222.00;;;1.37;100.00
24031;BME280;12240;51.142;22.486;2023-02-02T00:19:29;98237.00;;;1.46;100.00
24031;BME280;12240;51.142;22.486;2023-02-02T00:21:58;98221.28;;;1.35;100.00
24031;BME280;12240;51.142;22.486;2023-02-02T00:24:27;98233.03;;;1.52;100.00
24031;BME280;12240;51.142;22.486;2023-02-02T00:26:58;98241.34;;;1.57;100.00
24031;BME280;12240;51.142;22.486;2023-02-02T00:29:29;98226.25;;;1.49;100.00
24031;BME280;12240;51.142;22.486;2023-02-02T00:31:58;98225.41;;;1.49;100.00
24031;BME280;12240;51.142;22.486;2023-02-02T00:34:26;98237.34;;;1.53;100.00
24031;BME280;12240;51.142;22.486;2023-02-02T00:36:54;98216.13;;;1.45;100.00
24031;BME280;12240;51.142;22.486;2023-02-02T00:39:24;98187.47;;;1.21;100.00
24031;BME280;12240;51.142;22.486;2023-02-02T00:41:54;98224.25;;;1.42;100.00
24031;BME280;12240;51.142;22.486;2023-02-02T00:44:23;98237.09;;;1.45;100.00
24031;BME280;12240;51.142;22.486;2023-02-02T00:47:10;98235.69;;;1.41;100.00
24031;BME280;12240;51.142;22.486;2023-02-02T00:49:39;98187.59;;;1.08;100.00
24031;BME280;12240;51.142;22.486;2023-02-02T00:52:07;98187.13;;;1.14;100.00
24031;BME280;12240;51.142;22.486;2023-02-02T00:54:36;98235.69;;;1.41;100.00
24031;BME280;12240;51.142;22.486;2023-02-02T00:57:04;98233.06;;;1.41;100.00
24031;BME280;12240;51.142;22.486;2023-02-02T00:59:32;98229.72;;;1.39;100.00
24031;BME280;12240;51.142;22.486;2023-02-02T01:02:01;98225.81;;;1.33;100.00
24031;BME280;12240;51.142;22.486;2023-02-02T01:04:29;98158.81;;;0.97;100.00
24031;BME280;12240;51.142;22.486;2023-02-02T01:06:57;98152.84;;;0.95;100.00
24031;BME280;12240;51.142;22.486;2023-02-02T01:09:26;98213.06;;;1.29;100.00
24031;BME280;12240;51.142;22.486;2023-02-02T01:11:54;98217.22;;;1.31;100.00
24031;BME280;12240;51.142;22.486;2023-02-02T01:14:25;98175.72;;;1.04;100.00
24031;BME280;12240;51.142;22.486;2023-02-02T01:16:56;98203.53;;;1.28;100.00
24031;BME280;12240;51.142;22.486;2023-02-02T01:19:25;98195.47;;;1.19;100.00
24031;BME280;12240;51.142;22.486;2023-02-02T01:21:54;98154.41;;;0.98;100.00
24031;BME280;12240;51.142;22.486;2023-02-02T01:24:22;98195.19;;;1.23;100.00
24031;BME280;12240;51.142;22.486;2023-02-02T01:26:51;98170.31;;;1.17;100.00
24031;BME280;12240;51.142;22.486;2023-02-02T01:29:19;98190.28;;;1.29;100.00
24031;BME280;12240;51.142;22.486;2023-02-02T01:31:48;98175.66;;;1.27;100.00
24031;BME280;12240;51.142;22.486;2023-02-02T01:34:17;98161.50;;;1.18;100.00
24031;BME280;12240;51.142;22.486;2023-02-02T01:36:46;98208.97;;;1.47;100.00
24031;BME280;12240;51.142;22.486;2023-02-02T01:39:14;98196.59;;;1.38;100.00
24031;BME280;12240;51.142;22.486;2023-02-02T01:41:43;98188.72;;;1.38;100.00
24031;BME280;12240;51.142;22.486;2023-02-02T01:47:41;98155.06;;;1.22;100.00
24031;BME280;12240;51.142;22.486;2023-02-02T01:50:12;98214.06;;;1.59;100.00
24031;BME280;12240;51.142;22.486;2023-02-02T01:52:46;98200.03;;;1.49;100.00
24031;BME280;12240;51.142;22.486;2023-02-02T01:55:19;98209.88;;;1.57;100.00
24031;BME280;12240;51.142;22.486;2023-02-02T01:58:21;98193.44;;;1.55;100.00
24031;BME280;12240;51.142;22.486;2023-02-02T02:00:52;98201.19;;;1.56;100.00
24031;BME280;12240;51.142;22.486;2023-02-02T02:03:25;98196.06;;;1.55;100.00
24031;BME280;12240;51.142;22.486;2023-02-02T02:06:00;98202.00;;;1.57;100.00
24031;BME280;12240;51.142;22.486;2023-02-02T02:08:37;98174.16;;;1.45;100.00
24031;BME280;12240;51.142;22.486;2023-02-02T02:11:06;98192.28;;;1.48;100.00
24031;BME280;12240;51.142;22.486;2023-02-02T02:13:37;98153.97;;;1.25;100.00
24031;BME280;12240;51.142;22.486;2023-02-02T02:32:49;98200.09;;;1.59;100.00
24031;BME280;12240;51.142;22.486;2023-02-02T02:38:26;98205.78;;;1.64;100.00
24031;BME280;12240;51.142;22.486;2023-02-02T02:41:09;98167.50;;;1.41;100.00
24031;BME280;12240;51.142;22.486;2023-02-02T02:43:48;98195.22;;;1.54;100.00
24031;BME280;12240;51.142;22.486;2023-02-02T02:46:21;98210.31;;;1.62;100.00
24031;BME280;12240;51.142;22.486;2023-02-02T02:48:50;98211.31;;;1.61;100.00
24031;BME280;12240;51.142;22.486;2023-02-02T02:51:44;98210.22;;;1.63;100.00
24031;BME280;12240;51.142;22.486;2023-02-02T02:54:32;98201.66;;;1.61;100.00
24031;BME280;12240;51.142;22.486;2023-02-02T03:02:48;98209.97;;;1.66;100.00
24031;BME280;12240;51.142;22.486;2023-02-02T03:08:39;98233.47;;;1.68;100.00
24031;BME280;12240;51.142;22.486;2023-02-02T03:11:13;98171.91;;;1.40;100.00
24031;BME280;12240;51.142;22.486;2023-02-02T03:13:42;98166.91;;;1.37;100.00
24031;BME280;12240;51.142;22.486;2023-02-02T03:16:11;98198.13;;;1.40;100.00
24031;BME280;12240;51.142;22.486;2023-02-02T03:18:41;98207.69;;;1.62;100.00
24031;BME280;12240;51.142;22.486;2023-02-02T03:21:11;98219.56;;;1.56;100.00
24031;BME280;12240;51.142;22.486;2023-02-02T03:23:40;98230.28;;;1.53;100.00
24031;BME280;12240;51.142;22.486;2023-02-02T03:26:08;98171.38;;;1.26;100.00
24031;BME280;12240;51.142;22.486;2023-02-02T03:28:37;98224.81;;;1.56;100.00
24031;BME280;12240;51.142;22.486;2023-02-02T03:31:06;98217.88;;;1.55;100.00
24031;BME280;12240;51.142;22.486;2023-02-02T03:33:36;98175.91;;;1.24;100.00
24031;BME280;12240;51.142;22.486;2023-02-02T03:36:06;98188.63;;;1.28;100.00
24031;BME280;12240;51.142;22.486;2023-02-02T03:38:34;98212.56;;;1.46;100.00
24031;BME280;12240;51.142;22.486;2023-02-02T03:41:03;98223.88;;;1.46;100.00
24031;BME280;12240;51.142;22.486;2023-02-02T03:43:32;98185.56;;;1.23;100.00
24031;BME280;12240;51.142;22.486;2023-02-02T03:46:02;98209.69;;;1.38;100.00
24031;BME280;12240;51.142;22.486;2023-02-02T03:48:35;98238.28;;;1.52;100.00
24031;BME280;12240;51.142;22.486;2023-02-02T03:51:09;98173.50;;;1.20;100.00
24031;BME280;12240;51.142;22.486;2023-02-02T03:53:41;98229.59;;;1.51;100.00
24031;BME280;12240;51.142;22.486;2023-02-02T03:56:15;98220.41;;;1.46;100.00
24031;BME280;12240;51.142;22.486;2023-02-02T03:58:43;98184.72;;;1.23;100.00
24031;BME280;12240;51.142;22.486;2023-02-02T04:01:13;98237.06;;;1.56;100.00
24031;BME280;12240;51.142;22.486;2023-02-02T04:03:42;98193.03;;;1.28;100.00
24031;BME280;12240;51.142;22.486;2023-02-02T04:06:10;98221.13;;;1.48;100.00
24031;BME280;12240;51.142;22.486;2023-02-02T04:08:38;98242.44;;;1.54;100.00
24031;BME280;12240;51.142;22.486;2023-02-02T04:11:09;98225.41;;;1.49;100.00
24031;BME280;12240;51.142;22.486;2023-02-02T04:13:38;98242.72;;;1.51;100.00
24031;BME280;12240;51.142;22.486;2023-02-02T04:16:06;98235.66;;;1.52;100.00
24031;BME280;12240;51.142;22.486;2023-02-02T04:18:35;98235.78;;;1.50;100.00
24031;BME280;12240;51.142;22.486;2023-02-02T04:21:06;98193.53;;;1.22;100.00
24031;BME280;12240;51.142;22.486;2023-02-02T04:23:36;98231.03;;;1.44;100.00
24031;BME280;12240;51.142;22.486;2023-02-02T04:26:04;98207.97;;;1.27;100.00
24031;BME280;12240;51.142;22.486;2023-02-02T04:28:32;98234.00;;;1.40;100.00
24031;BME280;12240;51.142;22.486;2023-02-02T04:31:00;98240.22;;;1.39;100.00
24031;BME280;12240;51.142;22.486;2023-02-02T04:33:29;98230.13;;;1.34;100.00
24031;BME280;12240;51.142;22.486;2023-02-02T04:35:57;98195.84;;;1.15;100.00
24031;BME280;12240;51.142;22.486;2023-02-02T04:38:26;98246.91;;;1.43;100.00
24031;BME280;12240;51.142;22.486;2023-02-02T04:40:54;98236.56;;;1.30;100.00
24031;BME280;12240;51.142;22.486;2023-02-02T04:43:22;98203.44;;;1.18;100.00
24031;BME280;12240;51.142;22.486;2023-02-02T04:45:56;98237.81;;;1.47;100.00
24031;BME280;12240;51.142;22.486;2023-02-02T04:48:24;98215.59;;;1.19;100.00
24031;BME280;12240;51.142;22.486;2023-02-02T04:51:05;98263.22;;;1.46;100.00
24031;BME280;12240;51.142;22.486;2023-02-02T04:53:34;98257.84;;;1.48;100.00
24031;BME280;12240;51.142;22.486;2023-02-02T04:58:34;98257.59;;;1.51;100.00
24031;BME280;12240;51.142;22.486;2023-02-02T05:01:16;98263.09;;;1.48;100.00
24031;BME280;12240;51.142;22.486;2023-02-02T05:03:46;98271.19;;;1.56;100.00
24031;BME280;12240;51.142;22.486;2023-02-02T05:06:15;98221.41;;;1.23;100.00
24031;BME280;12240;51.142;22.486;2023-02-02T05:08:45;98273.41;;;1.60;100.00
24031;BME280;12240;51.142;22.486;2023-02-02T05:11:18;98264.50;;;1.52;100.00
24031;BME280;12240;51.142;22.486;2023-02-02T05:13:49;98274.25;;;1.61;100.00
24031;BME280;12240;51.142;22.486;2023-02-02T05:16:18;98277.41;;;1.55;100.00
24031;BME280;12240;51.142;22.486;2023-02-02T05:18:56;98236.56;;;1.30;100.00
24031;BME280;12240;51.142;22.486;2023-02-02T05:21:26;98289.75;;;1.64;100.00
24031;BME280;12240;51.142;22.486;2023-02-02T05:23:54;98287.50;;;1.59;100.00
24031;BME280;12240;51.142;22.486;2023-02-02T05:26:25;98294.06;;;1.65;100.00
24031;BME280;12240;51.142;22.486;2023-02-02T05:28:55;98242.25;;;1.35;100.00
24031;BME280;12240;51.142;22.486;2023-02-02T05:31:23;98283.09;;;1.60;100.00
24031;BME280;12240;51.142;22.486;2023-02-02T05:33:51;98275.84;;;1.52;100.00
24031;BME280;12240;51.142;22.486;2023-02-02T05:36:19;98284.31;;;1.56;100.00
24031;BME280;12240;51.142;22.486;2023-02-02T05:38:47;98281.88;;;1.64;100.00
24031;BME280;12240;51.142;22.486;2023-02-02T05:41:15;98291.44;;;1.65;100.00
24031;BME280;12240;51.142;22.486;2023-02-02T05:43:43;98301.44;;;1.71;100.00
24031;BME280;12240;51.142;22.486;2023-02-02T05:46:11;98277.16;;;1.58;100.00
24031;BME280;12240;51.142;22.486;2023-02-02T05:48:39;98268.34;;;1.48;100.00
24031;BME280;12240;51.142;22.486;2023-02-02T05:51:18;98286.53;;;1.60;100.00
24031;BME280;12240;51.142;22.486;2023-02-02T05:53:46;98304.44;;;1.66;100.00
24031;BME280;12240;51.142;22.486;2023-02-02T05:56:15;98260.50;;;1.37;100.00
24031;BME280;12240;51.142;22.486;2023-02-02T05:58:43;98290.72;;;1.52;100.00
24031;BME280;12240;51.142;22.486;2023-02-02T06:01:14;98266.94;;;1.33;100.00
24031;BME280;12240;51.142;22.486;2023-02-02T06:03:43;98308.63;;;1.58;100.00
24031;BME280;12240;51.142;22.486;2023-02-02T06:06:12;98267.38;;;1.38;100.00
24031;BME280;12240;51.142;22.486;2023-02-02T06:08:40;98316.38;;;1.59;100.00
24031;BME280;12240;51.142;22.486;2023-02-02T06:11:14;98319.72;;;1.61;100.00
24031;BME280;12240;51.142;22.486;2023-02-02T06:13:43;98296.09;;;1.50;100.00
24031;BME280;12240;51.142;22.486;2023-02-02T06:16:12;98311.72;;;1.63;100.00
24031;BME280;12240;51.142;22.486;2023-02-02T06:18:40;98313.50;;;1.62;100.00
24031;BME280;12240;51.142;22.486;2023-02-02T06:21:09;98308.25;;;1.62;100.00
24031;BME280;12240;51.142;22.486;2023-02-02T06:23:37;98317.22;;;1.60;100.00
24031;BME280;12240;51.142;22.486;2023-02-02T06:26:15;98263.63;;;1.31;100.00
24031;BME280;12240;51.142;22.486;2023-02-02T06:28:49;98275.03;;;1.30;100.00
24031;BME280;12240;51.142;22.486;2023-02-02T06:31:18;98265.66;;;1.27;100.00
24031;BME280;12240;51.142;22.486;2023-02-02T06:33:56;98316.25;;;1.61;100.00
24031;BME280;12240;51.142;22.486;2023-02-02T06:36:26;98290.06;;;1.39;100.00
24031;BME280;12240;51.142;22.486;2023-02-02T06:38:56;98285.28;;;1.33;100.00
24031;BME280;12240;51.142;22.486;2023-02-02T06:41:24;98298.66;;;1.41;100.00
24031;BME280;12240;51.142;22.486;2023-02-02T06:43:53;98309.34;;;1.49;100.00
24031;BME280;12240;51.142;22.486;2023-02-02T06:46:21;98276.59;;;1.32;100.00
24031;BME280;12240;51.142;22.486;2023-02-02T06:48:49;98319.59;;;1.63;100.00
24031;BME280;12240;51.142;22.486;2023-02-02T06:51:18;98283.63;;;1.43;100.00
24031;BME280;12240;51.142;22.486;2023-02-02T06:53:47;98297.53;;;1.54;100.00
24031;BME280;12240;51.142;22.486;2023-02-02T06:56:18;98335.78;;;1.79;100.00
24031;BME280;12240;51.142;22.486;2023-02-02T06:58:46;98294.06;;;1.54;100.00
24031;BME280;12240;51.142;22.486;2023-02-02T07:01:14;98337.19;;;1.83;100.00
24031;BME280;12240;51.142;22.486;2023-02-02T07:03:43;98327.78;;;1.80;100.00
24031;BME280;12240;51.142;22.486;2023-02-02T07:06:17;98338.22;;;1.91;100.00
24031;BME280;12240;51.142;22.486;2023-02-02T07:08:49;98333.09;;;1.90;100.00
24031;BME280;12240;51.142;22.486;2023-02-02T07:11:33;98335.84;;;1.99;100.00
24031;BME280;12240;51.142;22.486;2023-02-02T07:14:08;98329.63;;;2.00;100.00
24031;BME280;12240;51.142;22.486;2023-02-02T07:16:36;98344.31;;;2.03;100.00
24031;BME280;12240;51.142;22.486;2023-02-02T07:19:05;98289.94;;;1.83;100.00
24031;BME280;12240;51.142;22.486;2023-02-02T07:21:33;98341.34;;;2.17;100.00
24031;BME280;12240;51.142;22.486;2023-02-02T07:24:05;98346.75;;;2.15;100.00
24031;BME280;12240;51.142;22.486;2023-02-02T07:26:34;98292.88;;;1.89;100.00
24031;BME280;12240;51.142;22.486;2023-02-02T07:29:03;98290.97;;;1.91;100.00
24031;BME280;12240;51.142;22.486;2023-02-02T07:31:31;98345.28;;;2.22;100.00
24031;BME280;12240;51.142;22.486;2023-02-02T07:34:03;98335.03;;;2.19;100.00
24031;BME280;12240;51.142;22.486;2023-02-02T07:36:31;98293.94;;;1.98;100.00
24031;BME280;12240;51.142;22.486;2023-02-02T07:38:59;98337.50;;;2.32;100.00
24031;BME280;12240;51.142;22.486;2023-02-02T07:41:33;98329.03;;;2.28;100.00
24031;BME280;12240;51.142;22.486;2023-02-02T07:44:03;98303.19;;;2.13;100.00
24031;BME280;12240;51.142;22.486;2023-02-02T07:46:32;98347.63;;;2.36;100.00
24031;BME280;12240;51.142;22.486;2023-02-02T07:49:00;98344.59;;;2.41;100.00
24031;BME280;12240;51.142;22.486;2023-02-02T07:51:28;98299.34;;;2.17;100.00
24031;BME280;12240;51.142;22.486;2023-02-02T07:53:56;98349.38;;;2.47;100.00
24031;BME280;12240;51.142;22.486;2023-02-02T07:56:27;98349.22;;;2.49;100.00
24031;BME280;12240;51.142;22.486;2023-02-02T07:58:56;98357.09;;;2.28;100.00
24031;BME280;12240;51.142;22.486;2023-02-02T08:01:26;98349.31;;;1.95;100.00
24031;BME280;12240;51.142;22.486;2023-02-02T08:03:56;98332.91;;;1.82;100.00
24031;BME280;12240;51.142;22.486;2023-02-02T08:06:34;98293.22;;;1.64;100.00
24031;BME280;12240;51.142;22.486;2023-02-02T08:09:06;98338.22;;;2.02;100.00
24031;BME280;12240;51.142;22.486;2023-02-02T08:11:36;98342.78;;;2.21;100.00
24031;BME280;12240;51.142;22.486;2023-02-02T08:14:05;98307.47;;;2.14;100.00
24031;BME280;12240;51.142;22.486;2023-02-02T08:16:34;98328.84;;;2.41;100.00
24031;BME280;12240;51.142;22.486;2023-02-02T08:19:02;98333.72;;;2.46;100.00
24031;BME280;12240;51.142;22.486;2023-02-02T08:21:34;98334.19;;;2.51;100.00
24031;BME280;12240;51.142;22.486;2023-02-02T08:24:05;98331.03;;;2.57;100.00
24031;BME280;12240;51.142;22.486;2023-02-02T08:26:33;98333.47;;;2.69;100.00
24031;BME280;12240;51.142;22.486;2023-02-02T08:29:07;98286.88;;;2.51;100.00
24031;BME280;12240;51.142;22.486;2023-02-02T08:31:39;98327.19;;;2.81;100.00
24031;BME280;12240;51.142;22.486;2023-02-02T08:34:12;98320.31;;;2.90;100.00
24031;BME280;12240;51.142;22.486;2023-02-02T08:36:41;98316.41;;;2.84;100.00
24031;BME280;12240;51.142;22.486;2023-02-02T08:39:12;98317.25;;;2.85;100.00
24031;BME280;12240;51.142;22.486;2023-02-02T08:41:41;98315.44;;;2.85;100.00
24031;BME280;12240;51.142;22.486;2023-02-02T08:44:13;98322.63;;;2.83;100.00
24031;BME280;12240;51.142;22.486;2023-02-02T08:46:41;98270.28;;;2.50;100.00
24031;BME280;12240;51.142;22.486;2023-02-02T08:49:11;98284.88;;;2.43;100.00
24031;BME280;12240;51.142;22.486;2023-02-02T08:51:41;98280.38;;;2.13;100.00
24031;BME280;12240;51.142;22.486;2023-02-02T08:54:09;98310.44;;;2.20;100.00
24031;BME280;12240;51.142;22.486;2023-02-02T08:56:37;98301.19;;;2.05;100.00
24031;BME280;12240;51.142;22.486;2023-02-02T08:59:06;98272.53;;;1.82;100.00
24031;BME280;12240;51.142;22.486;2023-02-02T09:01:34;98318.38;;;2.09;100.00
24031;BME280;12240;51.142;22.486;2023-02-02T09:04:11;98280.59;;;1.90;100.00
24031;BME280;12240;51.142;22.486;2023-02-02T09:06:41;98279.03;;;1.98;100.00
24031;BME280;12240;51.142;22.486;2023-02-02T09:09:13;98211.72;;;1.77;100.00
24031;BME280;12240;51.142;22.486;2023-02-02T09:11:42;98296.41;;;2.31;100.00
24031;BME280;12240;51.142;22.486;2023-02-02T09:14:12;98287.38;;;2.24;100.00
24031;BME280;12240;51.142;22.486;2023-02-02T09:16:41;98264.56;;;2.04;100.00
24031;BME280;12240;51.142;22.486;2023-02-02T09:19:10;98296.97;;;2.14;100.00
24031;BME280;12240;51.142;22.486;2023-02-02T09:21:38;98221.31;;;1.67;100.00
24031;BME280;12240;51.142;22.486;2023-02-02T09:24:10;98301.34;;;2.24;100.00
24031;BME280;12240;51.142;22.486;2023-02-02T09:26:39;98295.72;;;2.29;100.00
24031;BME280;12240;51.142;22.486;2023-02-02T09:29:12;98300.53;;;2.45;100.00
24031;BME280;12240;51.142;22.486;2023-02-02T09:31:40;98250.56;;;2.35;100.00
24031;BME280;12240;51.142;22.486;2023-02-02T09:34:12;98274.75;;;2.59;100.00
24031;BME280;12240;51.142;22.486;2023-02-02T09:36:41;98291.41;;;2.69;100.00
24031;BME280;12240;51.142;22.486;2023-02-02T09:39:11;98291.59;;;2.77;100.00
24031;BME280;12240;51.142;22.486;2023-02-02T09:48:09;98287.13;;;2.68;100.00
24031;BME280;12240;51.142;22.486;2023-02-02T09:50:58;98202.25;;;2.06;100.00
24031;BME280;12240;51.142;22.486;2023-02-02T09:53:51;98214.41;;;2.07;100.00
24031;BME280;12240;51.142;22.486;2023-02-02T09:56:40;98264.91;;;2.31;100.00
24031;BME280;12240;51.142;22.486;2023-02-02T09:59:23;98271.03;;;2.41;100.00
24031;BME280;12240;51.142;22.486;2023-02-02T10:01:57;98226.66;;;2.17;100.00
24031;BME280;12240;51.142;22.486;2023-02-02T10:04:37;98264.63;;;2.34;100.00
24031;BME280;12240;51.142;22.486;2023-02-02T10:07:15;98130.59;;;1.53;100.00
24031;BME280;12240;51.142;22.486;2023-02-02T10:10:00;98237.28;;;2.16;100.00
24031;BME280;12240;51.142;22.486;2023-02-02T10:13:02;98256.19;;;2.30;100.00
24031;BME280;12240;51.142;22.486;2023-02-02T10:16:12;98260.47;;;2.31;100.00
24031;BME280;12240;51.142;22.486;2023-02-02T10:19:10;98244.16;;;2.28;100.00
24031;BME280;12240;51.142;22.486;2023-02-02T10:24:28;98243.38;;;2.37;100.00
24031;BME280;12240;51.142;22.486;2023-02-02T10:27:22;98200.94;;;2.11;100.00
24031;BME280;12240;51.142;22.486;2023-02-02T10:30:01;98238.91;;;2.28;100.00
24031;BME280;12240;51.142;22.486;2023-02-02T10:32:36;98229.81;;;2.32;100.00
24031;BME280;12240;51.142;22.486;2023-02-02T10:38:42;98225.16;;;2.45;100.00
24031;BME280;12240;51.142;22.486;2023-02-02T10:41:28;98229.66;;;2.54;100.00
24031;BME280;12240;51.142;22.486;2023-02-02T10:44:28;98236.88;;;2.62;100.00
24031;BME280;12240;51.142;22.486;2023-02-02T10:47:04;98246.66;;;2.80;100.00
24031;BME280;12240;51.142;22.486;2023-02-02T10:49:37;98210.50;;;2.73;100.00
24031;BME280;12240;51.142;22.486;2023-02-02T10:52:24;98212.16;;;2.74;100.00
24031;BME280;12240;51.142;22.486;2023-02-02T10:55:06;98238.09;;;2.88;100.00
24031;BME280;12240;51.142;22.486;2023-02-02T11:03:37;98223.00;;;2.80;100.00
24031;BME280;12240;51.142;22.486;2023-02-02T11:06:07;98142.00;;;2.25;100.00
24031;BME280;12240;51.142;22.486;2023-02-02T11:08:54;98232.44;;;2.62;100.00
24031;BME280;12240;51.142;22.486;2023-02-02T11:11:40;98222.25;;;2.69;100.00
24031;BME280;12240;51.142;22.486;2023-02-02T11:14:15;98222.38;;;2.67;100.00
24031;BME280;12240;51.142;22.486;2023-02-02T11:17:03;98142.31;;;2.11;100.00
24031;BME280;12240;51.142;22.486;2023-02-02T11:19:35;98217.53;;;2.63;100.00
24031;BME280;12240;51.142;22.486;2023-02-02T11:22:04;98164.38;;;2.29;100.00
24031;BME280;12240;51.142;22.486;2023-02-02T11:24:46;98186.41;;;2.37;100.00
24031;BME280;12240;51.142;22.486;2023-02-02T11:27:39;98207.44;;;2.68;100.00
24031;BME280;12240;51.142;22.486;2023-02-02T11:30:26;98154.88;;;2.37;100.00
24031;BME280;12240;51.142;22.486;2023-02-02T11:32:55;98213.09;;;2.63;100.00
24031;BME280;12240;51.142;22.486;2023-02-02T11:35:26;98225.13;;;2.66;100.00
24031;BME280;12240;51.142;22.486;2023-02-02T11:38:13;98203.66;;;2.51;100.00
24031;BME280;12240;51.142;22.486;2023-02-02T11:40:44;98216.59;;;2.43;100.00
24031;BME280;12240;51.142;22.486;2023-02-02T11:46:29;98208.69;;;2.43;100.00
24031;BME280;12240;51.142;22.486;2023-02-02T11:49:05;98215.75;;;2.42;100.00
24031;BME280;12240;51.142;22.486;2023-02-02T11:51:37;98166.44;;;2.05;100.00
24031;BME280;12240;51.142;22.486;2023-02-02T11:54:20;98215.69;;;2.33;100.00
24031;BME280;12240;51.142;22.486;2023-02-02T11:56:55;98217.47;;;2.32;100.00
24031;BME280;12240;51.142;22.486;2023-02-02T11:59:37;98225.81;;;2.37;100.00
24031;BME280;12240;51.142;22.486;2023-02-02T12:02:27;98223.06;;;2.39;100.00
24031;BME280;12240;51.142;22.486;2023-02-02T12:07:47;98157.63;;;2.06;100.00
24031;BME280;12240;51.142;22.486;2023-02-02T12:10:26;98198.28;;;2.32;100.00
24031;BME280;12240;51.142;22.486;2023-02-02T12:43:21;98259.03;;;2.69;100.00
24031;BME280;12240;51.142;22.486;2023-02-02T12:46:17;98267.50;;;2.72;100.00
24031;BME280;12240;51.142;22.486;2023-02-02T13:01:05;98293.66;;;2.53;100.00
24031;BME280;12240;51.142;22.486;2023-02-02T13:10:17;98297.75;;;2.46;100.00
24031;BME280;12240;51.142;22.486;2023-02-02T13:13:00;98259.94;;;2.17;100.00
24031;BME280;12240;51.142;22.486;2023-02-02T13:15:35;98305.84;;;2.33;100.00
24031;BME280;12240;51.142;22.486;2023-02-02T13:18:18;98313.34;;;2.38;100.00
24031;BME280;12240;51.142;22.486;2023-02-02T13:21:15;98308.59;;;2.32;100.00
24031;BME280;12240;51.142;22.486;2023-02-02T13:23:50;98327.69;;;2.34;100.00
24031;BME280;12240;51.142;22.486;2023-02-02T13:26:23;98328.97;;;2.39;100.00
24031;BME280;12240;51.142;22.486;2023-02-02T13:31:41;98332.81;;;2.35;100.00
24031;BME280;12240;51.142;22.486;2023-02-02T13:34:43;98337.50;;;2.32;100.00
24031;BME280;12240;51.142;22.486;2023-02-02T13:37:36;98340.34;;;2.29;100.00
24031;BME280;12240;51.142;22.486;2023-02-02T13:40:29;98348.38;;;2.27;100.00
24031;BME280;12240;51.142;22.486;2023-02-02T13:49:08;98358.53;;;2.21;100.00
24031;BME280;12240;51.142;22.486;2023-02-02T14:00:52;98380.28;;;2.23;100.00
24031;BME280;12240;51.142;22.486;2023-02-02T14:03:35;98386.00;;;2.17;100.00
24031;BME280;12240;51.142;22.486;2023-02-02T14:06:20;98398.06;;;2.19;100.00
24031;BME280;12240;51.142;22.486;2023-02-02T14:09:01;98398.91;;;2.20;100.00
24031;BME280;12240;51.142;22.486;2023-02-02T14:11:38;98403.44;;;2.18;100.00
24031;BME280;12240;51.142;22.486;2023-02-02T14:14:20;98344.59;;;1.78;100.00
24031;BME280;12240;51.142;22.486;2023-02-02T14:19:55;98356.53;;;1.82;100.00
24031;BME280;12240;51.142;22.486;2023-02-02T14:22:48;98403.59;;;2.05;100.00
24031;BME280;12240;51.142;22.486;2023-02-02T14:28:12;98423.75;;;2.05;100.00
24031;BME280;12240;51.142;22.486;2023-02-02T14:31:52;98446.91;;;2.11;100.00
24031;BME280;12240;51.142;22.486;2023-02-02T14:45:47;98438.34;;;1.87;100.00
24031;BME280;12240;51.142;22.486;2023-02-02T14:48:20;98495.13;;;2.10;100.00
24031;BME280;12240;51.142;22.486;2023-02-02T14:50:50;98440.25;;;1.85;100.00
24031;BME280;12240;51.142;22.486;2023-02-02T14:53:33;98484.38;;;2.02;100.00
24031;BME280;12240;51.142;22.486;2023-02-02T14:58:53;98491.22;;;2.04;100.00
24031;BME280;12240;51.142;22.486;2023-02-02T15:01:27;98512.09;;;2.06;100.00
24031;BME280;12240;51.142;22.486;2023-02-02T15:06:48;98524.97;;;1.98;100.00
24031;BME280;12240;51.142;22.486;2023-02-02T15:15:04;98498.38;;;1.58;100.00
24031;BME280;12240;51.142;22.486;2023-02-02T15:17:46;98540.00;;;1.85;100.00
24031;BME280;12240;51.142;22.486;2023-02-02T15:20:40;98567.22;;;1.84;100.00
24031;BME280;12240;51.142;22.486;2023-02-02T15:23:35;98543.09;;;1.68;100.00
24031;BME280;12240;51.142;22.486;2023-02-02T15:26:26;98565.66;;;1.70;100.00
24031;BME280;12240;51.142;22.486;2023-02-02T15:28:59;98532.31;;;1.49;100.00
24031;BME280;12240;51.142;22.486;2023-02-02T15:31:45;98553.31;;;1.49;100.00
24031;BME280;12240;51.142;22.486;2023-02-02T15:34:15;98597.47;;;1.66;100.00
24031;BME280;12240;51.142;22.486;2023-02-02T15:36:51;98552.41;;;1.26;100.00
24031;BME280;12240;51.142;22.486;2023-02-02T15:42:04;98617.94;;;1.50;100.00
24031;BME280;12240;51.142;22.486;2023-02-02T15:44:52;98577.81;;;1.26;100.00
24031;BME280;12240;51.142;22.486;2023-02-02T15:47:33;98615.53;;;1.47;100.00
24031;BME280;12240;51.142;22.486;2023-02-02T15:50:18;98640.13;;;1.46;100.00
24031;BME280;12240;51.142;22.486;2023-02-02T15:52:49;98643.41;;;1.37;100.00
24031;BME280;12240;51.142;22.486;2023-02-02T15:57:59;98647.19;;;1.33;100.00
24031;BME280;12240;51.142;22.486;2023-02-02T16:00:32;98572.81;;;0.75;100.00
24031;BME280;12240;51.142;22.486;2023-02-02T16:03:11;98632.44;;;1.08;100.00
24031;BME280;12240;51.142;22.486;2023-02-02T16:05:55;98670.00;;;1.32;100.00